createdAt,value
2019-03-01T00:01:54.023Z,100391.84
2019-03-01T00:05:21.184Z,100391.67
2019-03-01T00:08:16.072Z,100396.02
2019-03-01T00:11:43.855Z,100398.56
2019-03-01T00:15:03.065Z,100397.90
2019-03-01T00:18:38.785Z,100395.23
2019-03-01T00:22:16.963Z,100393.09
2019-03-01T00:25:45.960Z,100392.70
2019-03-01T00:29:16.609Z,100390.19
2019-03-01T00:32:30.998Z,100387.13
2019-03-01T00:36:12.650Z,100372.51
2019-03-01T00:39:25.951Z,100382.09
2019-03-01T00:42:54.883Z,100382.13
2019-03-01T00:45:27.701Z,100381.80
2019-03-01T00:48:00.649Z,100372.53
2019-03-01T00:50:33.839Z,100365.45
2019-03-01T00:53:07.338Z,100371.68
2019-03-01T00:55:45.909Z,100361.40
2019-03-01T00:58:18.909Z,100360.62
2019-03-01T01:00:53.103Z,100354.35
2019-03-01T01:03:26.059Z,100350.30
2019-03-01T01:05:58.889Z,100339.99
2019-03-01T01:08:31.857Z,100336.95
2019-03-01T01:13:55.551Z,100332.11
2019-03-01T01:16:28.421Z,100335.23
2019-03-01T01:19:01.297Z,100332.32
2019-03-01T01:21:34.506Z,100339.33
2019-03-01T01:24:09.110Z,100334.28
2019-03-01T01:26:42.486Z,100332.66
2019-03-01T01:29:15.406Z,100333.94
2019-03-01T01:31:48.410Z,100329.63
2019-03-01T01:34:21.391Z,100332.85
2019-03-01T01:36:54.426Z,100334.71
2019-03-01T01:39:28.880Z,100329.64
2019-03-01T01:42:01.983Z,100338.73
2019-03-01T01:44:34.872Z,100333.36
2019-03-01T01:47:07.690Z,100337.67
2019-03-01T01:49:40.641Z,100333.94
2019-03-01T01:52:14.734Z,100322.98
2019-03-01T01:54:47.830Z,100323.59
2019-03-01T01:57:20.834Z,100317.45
2019-03-01T01:59:53.761Z,100315.52
2019-03-01T02:02:26.749Z,100314.44
2019-03-01T02:04:59.705Z,100312.48
2019-03-01T02:07:34.259Z,100305.47
2019-03-01T02:10:08.737Z,100296.38
2019-03-01T02:12:41.753Z,100293.42
2019-03-01T02:15:15.114Z,100305.76
2019-03-01T02:17:49.142Z,100301.92
2019-03-01T02:20:22.067Z,100301.63
2019-03-01T02:22:54.880Z,100303.38
2019-03-01T02:25:27.881Z,100297.67
2019-03-01T02:28:00.743Z,100305.41
2019-03-01T02:30:34.608Z,100300.20
2019-03-01T02:33:07.669Z,100292.70
2019-03-01T02:35:40.679Z,100288.41
2019-03-01T02:38:13.631Z,100291.52
2019-03-01T02:40:46.534Z,100289.81
2019-03-01T02:43:19.387Z,100281.95
2019-03-01T02:45:52.506Z,100284.01
2019-03-01T02:48:25.600Z,100283.02
2019-03-01T02:50:58.487Z,100285.97
2019-03-01T02:53:31.295Z,100287.14
2019-03-01T02:56:04.270Z,100288.92
2019-03-01T02:58:37.270Z,100276.17
2019-03-01T03:01:10.184Z,100281.63
2019-03-01T03:03:43.078Z,100278.33
2019-03-01T03:06:37.719Z,100284.45
2019-03-01T03:09:11.770Z,100287.50
2019-03-01T03:11:44.874Z,100276.08
2019-03-01T03:14:17.894Z,100277.61
2019-03-01T03:16:50.877Z,100277.89
2019-03-01T03:19:23.749Z,100287.66
2019-03-01T03:21:56.608Z,100294.22
2019-03-01T03:24:29.603Z,100288.16
2019-03-01T03:27:02.565Z,100287.63
2019-03-01T03:29:36.714Z,100288.64
2019-03-01T03:32:11.098Z,100286.92
2019-03-01T03:34:44.138Z,100286.61
2019-03-01T03:37:16.935Z,100291.97
2019-03-01T03:39:49.809Z,100279.62
2019-03-01T03:42:22.860Z,100280.05
2019-03-01T03:44:55.856Z,100280.55
2019-03-01T03:47:28.943Z,100282.77
2019-03-01T03:50:02.076Z,100282.93
2019-03-01T03:52:39.367Z,100282.83
2019-03-01T03:55:14.503Z,100278.16
2019-03-01T03:57:48.159Z,100277.43
2019-03-01T04:00:21.501Z,100281.01
2019-03-01T04:02:54.610Z,100280.72
2019-03-01T04:05:27.580Z,100280.28
2019-03-01T04:08:00.520Z,100284.70
2019-03-01T04:10:33.396Z,100286.06
2019-03-01T04:13:06.433Z,100293.30
2019-03-01T04:15:39.509Z,100298.11
2019-03-01T04:18:12.424Z,100281.66
2019-03-01T04:20:45.460Z,100285.63
2019-03-01T04:23:18.533Z,100282.81
2019-03-01T04:25:51.366Z,100279.36
2019-03-01T04:28:24.292Z,100281.45
2019-03-01T04:30:57.617Z,100284.28
2019-03-01T04:33:30.780Z,100287.23
2019-03-01T04:36:03.822Z,100282.86
2019-03-01T04:38:37.012Z,100284.00
2019-03-01T04:41:09.948Z,100283.37
2019-03-01T04:43:43.955Z,100281.50
2019-03-01T04:46:16.791Z,100277.89
2019-03-01T04:48:49.748Z,100275.13
2019-03-01T04:51:22.639Z,100265.53
2019-03-01T04:53:55.511Z,100270.09
2019-03-01T04:56:28.891Z,100265.62
2019-03-01T04:59:01.793Z,100271.23
2019-03-01T05:01:36.983Z,100273.36
2019-03-01T05:04:12.190Z,100270.72
2019-03-01T05:06:45.294Z,100270.97
2019-03-01T05:09:18.615Z,100270.47
2019-03-01T05:11:51.667Z,100269.89
2019-03-01T05:14:24.587Z,100266.78
2019-03-01T05:16:57.686Z,100257.95
2019-03-01T05:19:31.564Z,100257.07
2019-03-01T05:22:04.639Z,100264.73
2019-03-01T05:24:37.764Z,100262.93
2019-03-01T05:27:12.707Z,100263.78
2019-03-01T05:29:50.418Z,100265.98
2019-03-01T05:32:28.667Z,100266.04
2019-03-01T05:35:13.196Z,100265.88
2019-03-01T05:37:53.696Z,100271.11
2019-03-01T05:40:29.123Z,100269.37
2019-03-01T05:43:02.097Z,100271.36
2019-03-01T05:45:49.756Z,100271.73
2019-03-01T05:48:25.014Z,100268.75
2019-03-01T05:50:58.433Z,100270.30
2019-03-01T05:53:38.930Z,100272.02
2019-03-01T05:56:11.851Z,100264.21
2019-03-01T05:58:50.496Z,100268.42
2019-03-01T06:02:07.423Z,100273.18
2019-03-01T06:04:51.665Z,100274.55
2019-03-01T06:08:21.120Z,100274.62
2019-03-01T06:11:33.170Z,100277.08
2019-03-01T06:15:12.298Z,100279.62
2019-03-01T06:18:49.542Z,100280.13
2019-03-01T06:21:50.797Z,100284.78
2019-03-01T06:25:35.984Z,100282.35
2019-03-01T06:29:02.628Z,100283.38
2019-03-01T06:33:00.758Z,100280.82
2019-03-01T06:36:19.486Z,100289.70
2019-03-01T06:40:15.857Z,100292.51
2019-03-01T06:43:39.198Z,100301.72
2019-03-01T06:47:17.911Z,100303.16
2019-03-01T06:50:04.601Z,100302.44
2019-03-01T06:52:37.311Z,100306.41
2019-03-01T06:55:31.556Z,100303.16
2019-03-01T06:58:11.516Z,100297.19
2019-03-01T07:00:50.473Z,100304.55
2019-03-01T07:03:25.845Z,100301.87
2019-03-01T07:06:03.737Z,100295.45
2019-03-01T07:09:07.064Z,100288.75
2019-03-01T07:12:10.825Z,100297.20
2019-03-01T07:15:08.741Z,100297.12
2019-03-01T07:18:16.388Z,100294.08
2019-03-01T07:21:01.759Z,100290.36
2019-03-01T07:25:06.458Z,100297.67
2019-03-01T07:27:54.752Z,100299.48
2019-03-01T07:35:03.486Z,100290.38
2019-03-01T07:37:42.294Z,100286.47
2019-03-01T07:40:18.990Z,100289.86
2019-03-01T07:42:54.361Z,100285.47
2019-03-01T07:45:32.002Z,100293.59
2019-03-01T07:48:05.038Z,100289.62
2019-03-01T07:50:38.286Z,100288.30
2019-03-01T07:53:11.395Z,100297.95
2019-03-01T07:55:46.536Z,100296.92
2019-03-01T07:58:21.559Z,100295.45
2019-03-01T08:00:54.792Z,100299.25
2019-03-01T08:03:28.015Z,100298.01
2019-03-01T08:06:05.591Z,100297.01
2019-03-01T08:08:47.457Z,100298.52
2019-03-01T08:11:20.564Z,100298.77
2019-03-01T08:14:04.871Z,100300.06
2019-03-01T08:16:39.400Z,100304.70
2019-03-01T08:19:17.065Z,100300.41
2019-03-01T08:21:55.817Z,100295.42
2019-03-01T08:24:29.128Z,100301.72
2019-03-01T08:27:06.492Z,100293.84
2019-03-01T08:29:40.601Z,100296.66
2019-03-01T08:32:30.635Z,100295.30
2019-03-01T08:35:20.428Z,100299.41
2019-03-01T08:38:01.400Z,100303.66
2019-03-01T08:40:36.046Z,100304.52
2019-03-01T08:43:29.685Z,100309.23
2019-03-01T08:46:09.577Z,100308.41
2019-03-01T08:48:41.085Z,100308.22
2019-03-01T08:51:22.759Z,100307.53
2019-03-01T08:54:16.808Z,100311.75
2019-03-01T08:56:52.872Z,100303.16
2019-03-01T08:59:27.589Z,100309.28
2019-03-01T09:02:11.842Z,100302.47
2019-03-01T09:04:51.119Z,100303.40
2019-03-01T09:07:30.228Z,100295.48
2019-03-01T09:10:08.684Z,100301.55
2019-03-01T09:12:41.917Z,100300.45
2019-03-01T09:15:36.728Z,100305.98
2019-03-01T09:18:11.496Z,100293.67
2019-03-01T09:20:44.317Z,100300.26
2019-03-01T09:23:27.274Z,100299.30
2019-03-01T09:26:11.140Z,100303.06
2019-03-01T09:28:46.951Z,100300.58
2019-03-01T09:31:22.603Z,100299.41
2019-03-01T09:34:06.144Z,100307.97
2019-03-01T09:36:51.475Z,100307.23
2019-03-01T09:39:33.901Z,100304.52
2019-03-01T09:42:21.043Z,100296.27
2019-03-01T09:45:06.890Z,100295.88
2019-03-01T09:50:31.656Z,100300.78
2019-03-01T09:53:04.792Z,100296.45
2019-03-01T09:55:39.287Z,100298.64
2019-03-01T09:58:17.269Z,100297.77
2019-03-01T10:01:13.794Z,100298.86
2019-03-01T10:03:56.169Z,100302.40
2019-03-01T10:06:37.791Z,100305.30
2019-03-01T10:09:25.713Z,100303.97
2019-03-01T10:12:20.217Z,100301.18
2019-03-01T10:15:21.881Z,100298.25
2019-03-01T10:18:06.941Z,100298.33
2019-03-01T10:21:06.938Z,100292.13
2019-03-01T10:24:50.999Z,100303.65
2019-03-01T10:27:59.686Z,100288.00
2019-03-01T10:30:59.722Z,100288.00
2019-03-01T10:33:55.168Z,100282.70
2019-03-01T10:36:34.664Z,100274.72
2019-03-01T10:39:59.285Z,100285.90
2019-03-01T10:42:48.071Z,100277.86
2019-03-01T10:45:40.350Z,100282.66
2019-03-01T10:48:17.731Z,100272.96
2019-03-01T10:51:07.830Z,100267.41
2019-03-01T10:53:47.783Z,100270.50
2019-03-01T10:56:23.956Z,100271.91
2019-03-01T10:59:05.772Z,100267.81
2019-03-01T11:01:55.175Z,100274.88
2019-03-01T11:04:48.635Z,100267.17
2019-03-01T11:07:31.745Z,100269.08
2019-03-01T11:13:38.897Z,100274.81
2019-03-01T11:16:19.904Z,100277.08
2019-03-01T11:19:00.025Z,100269.18
2019-03-01T11:21:36.673Z,100282.64
2019-03-01T11:24:29.662Z,100285.08
2019-03-01T11:27:27.354Z,100279.57
2019-03-01T11:30:11.906Z,100277.86
2019-03-01T11:32:47.235Z,100268.03
2019-03-01T11:35:20.639Z,100276.45
2019-03-01T11:38:00.127Z,100264.91
2019-03-01T11:40:38.838Z,100272.14
2019-03-01T11:43:23.627Z,100279.27
2019-03-01T11:46:00.533Z,100274.52
2019-03-01T11:48:44.717Z,100267.41
2019-03-01T11:51:24.853Z,100274.06
2019-03-01T11:54:07.405Z,100270.05
2019-03-01T11:56:53.608Z,100266.02
2019-03-01T11:59:29.477Z,100267.76
2019-03-01T12:02:30.996Z,100267.55
2019-03-01T12:05:30.526Z,100264.00
2019-03-01T12:08:17.577Z,100261.28
2019-03-01T12:11:12.022Z,100261.88
2019-03-01T12:13:51.628Z,100270.59
2019-03-01T12:16:26.507Z,100269.84
2019-03-01T12:19:04.627Z,100275.80
2019-03-01T12:21:41.659Z,100280.89
2019-03-01T12:24:14.872Z,100280.89
2019-03-01T12:26:49.678Z,100275.70
2019-03-01T12:29:30.845Z,100276.45
2019-03-01T12:32:07.742Z,100279.34
2019-03-01T12:34:42.510Z,100279.34
2019-03-01T12:37:17.630Z,100282.73
2019-03-01T12:40:07.985Z,100281.25
2019-03-01T12:42:56.508Z,100285.27
2019-03-01T12:45:44.336Z,100285.27
2019-03-01T12:48:18.753Z,100288.94
2019-03-01T12:50:55.939Z,100294.73
2019-03-01T12:53:34.980Z,100294.73
2019-03-01T12:56:21.386Z,100296.17
2019-03-01T12:59:04.999Z,100286.34
2019-03-01T13:01:38.828Z,100302.81
2019-03-01T13:04:32.103Z,100299.61
2019-03-01T13:07:20.188Z,100297.22
2019-03-01T13:09:58.876Z,100305.15
2019-03-01T13:12:36.224Z,100294.96
2019-03-01T13:15:21.480Z,100296.08
2019-03-01T13:18:32.225Z,100302.84
2019-03-01T13:21:14.654Z,100296.71
2019-03-01T13:23:51.253Z,100297.58
2019-03-01T13:27:17.529Z,100295.32
2019-03-01T13:29:58.762Z,100280.75
2019-03-01T13:32:36.077Z,100290.53
2019-03-01T13:35:16.366Z,100301.67
2019-03-01T13:37:57.755Z,100311.16
2019-03-01T13:40:38.399Z,100312.55
2019-03-01T13:43:13.097Z,100309.11
2019-03-01T13:45:52.719Z,100309.11
2019-03-01T13:48:27.284Z,100306.72
2019-03-01T13:51:01.512Z,100306.91
2019-03-01T13:53:35.004Z,100307.14
2019-03-01T13:56:08.187Z,100311.71
2019-03-01T13:58:45.469Z,100311.61
2019-03-01T14:01:27.042Z,100316.65
2019-03-01T14:04:03.250Z,100316.58
2019-03-01T14:06:46.549Z,100321.47
2019-03-01T14:09:27.091Z,100318.68
2019-03-01T14:12:04.219Z,100322.03
2019-03-01T14:14:45.254Z,100326.03
2019-03-01T14:18:00.670Z,100330.38
2019-03-01T14:20:36.085Z,100331.23
2019-03-01T14:23:43.069Z,100342.66
2019-03-01T14:26:26.349Z,100348.36
2019-03-01T14:29:16.947Z,100345.55
2019-03-01T14:31:56.639Z,100349.00
2019-03-01T14:34:29.883Z,100355.28
2019-03-01T14:37:03.505Z,100351.08
2019-03-01T14:39:38.144Z,100360.59
2019-03-01T14:42:18.847Z,100360.92
2019-03-01T14:44:51.834Z,100364.06
2019-03-01T14:47:29.126Z,100369.14
2019-03-01T14:50:00.698Z,100373.66
2019-03-01T14:52:33.538Z,100382.70
2019-03-01T14:55:07.588Z,100392.00
2019-03-01T14:57:47.082Z,100391.18
2019-03-01T15:01:00.155Z,100400.16
2019-03-01T15:03:40.633Z,100406.48
2019-03-01T15:06:15.468Z,100403.02
2019-03-01T15:08:48.250Z,100409.98
2019-03-01T15:11:23.668Z,100414.24
2019-03-01T15:13:57.683Z,100410.55
2019-03-01T15:16:30.636Z,100410.85
2019-03-01T15:19:04.789Z,100417.23
2019-03-01T15:21:38.429Z,100414.45
2019-03-01T15:24:12.526Z,100418.96
2019-03-01T15:26:46.274Z,100418.48
2019-03-01T15:29:19.200Z,100423.63
2019-03-01T15:31:55.065Z,100422.20
2019-03-01T15:34:26.922Z,100428.13
2019-03-01T15:36:59.863Z,100422.66
2019-03-01T15:39:33.022Z,100430.08
2019-03-01T15:42:05.969Z,100431.45
2019-03-01T15:44:38.997Z,100430.70
2019-03-01T15:47:12.144Z,100441.59
2019-03-01T15:49:48.027Z,100444.34
2019-03-01T15:52:21.161Z,100447.98
2019-03-01T15:54:54.305Z,100450.95
2019-03-01T15:57:27.546Z,100463.53
2019-03-01T16:00:03.530Z,100460.34
2019-03-01T16:02:40.286Z,100465.50
2019-03-01T16:05:21.688Z,100460.59
2019-03-01T16:07:57.208Z,100466.94
2019-03-01T16:10:32.917Z,100470.92
2019-03-01T16:13:08.413Z,100472.03
2019-03-01T16:15:41.271Z,100483.29
2019-03-01T16:18:17.004Z,100489.57
2019-03-01T16:20:57.354Z,100482.77
2019-03-01T16:23:32.593Z,100490.77
2019-03-01T16:26:05.993Z,100489.74
2019-03-01T16:28:40.410Z,100491.69
2019-03-01T16:31:18.013Z,100500.63
2019-03-01T16:33:53.558Z,100501.25
2019-03-01T16:36:30.733Z,100503.84
2019-03-01T16:39:08.567Z,100508.31
2019-03-01T16:41:55.369Z,100508.88
2019-03-01T16:44:41.690Z,100512.17
2019-03-01T16:47:23.310Z,100512.02
2019-03-01T16:49:58.946Z,100514.17
2019-03-01T16:52:35.538Z,100515.59
2019-03-01T16:55:24.452Z,100521.42
2019-03-01T16:58:20.159Z,100523.39
2019-03-01T17:01:19.189Z,100530.89
2019-03-01T17:04:04.192Z,100522.73
2019-03-01T17:06:45.496Z,100530.94
2019-03-01T17:09:19.013Z,100538.07
2019-03-01T17:11:52.255Z,100545.56
2019-03-01T17:14:25.313Z,100544.38
2019-03-01T17:17:16.857Z,100548.38
2019-03-01T17:19:50.189Z,100549.31
2019-03-01T17:22:28.057Z,100554.09
2019-03-01T17:25:01.298Z,100555.92
2019-03-01T17:27:36.730Z,100557.60
2019-03-01T17:30:18.151Z,100560.31
2019-03-01T17:33:12.808Z,100569.03
2019-03-01T17:35:49.271Z,100570.45
2019-03-01T17:38:22.925Z,100579.66
2019-03-01T17:40:56.507Z,100583.78
2019-03-01T17:43:34.235Z,100586.48
2019-03-01T17:46:09.707Z,100589.10
2019-03-01T17:48:45.641Z,100590.41
2019-03-01T17:51:21.074Z,100597.44
2019-03-01T17:53:56.001Z,100598.12
2019-03-01T17:56:31.123Z,100608.69
2019-03-01T17:59:08.251Z,100611.94
2019-03-01T18:01:41.083Z,100616.14
2019-03-01T18:04:14.338Z,100624.00
2019-03-01T18:06:48.713Z,100628.84
2019-03-01T18:09:22.122Z,100627.17
2019-03-01T18:11:56.758Z,100631.65
2019-03-01T18:14:33.802Z,100633.96
2019-03-01T18:17:06.468Z,100631.04
2019-03-01T18:19:40.392Z,100637.59
2019-03-01T18:22:14.849Z,100644.17
2019-03-01T18:24:52.327Z,100648.16
2019-03-01T18:27:29.813Z,100653.87
2019-03-01T18:30:19.978Z,100653.25
2019-03-01T18:33:10.366Z,100654.26
2019-03-01T18:35:55.942Z,100659.16
2019-03-01T18:38:34.654Z,100663.14
2019-03-01T18:41:29.235Z,100667.66
2019-03-01T18:44:06.504Z,100671.67
2019-03-01T18:46:40.452Z,100674.88
2019-03-01T18:49:16.712Z,100676.96
2019-03-01T18:51:57.616Z,100680.64
2019-03-01T18:54:25.991Z,100686.51
2019-03-01T18:57:00.746Z,100696.13
2019-03-01T18:59:37.980Z,100691.38
2019-03-01T19:02:10.311Z,100697.08
2019-03-01T19:04:44.169Z,100696.81
2019-03-01T19:07:24.369Z,100706.50
2019-03-01T19:10:10.696Z,100704.42
2019-03-01T19:12:48.643Z,100704.07
2019-03-01T19:15:22.643Z,100705.52
2019-03-01T19:18:02.395Z,100712.34
2019-03-01T19:20:41.553Z,100714.19
2019-03-01T19:23:14.869Z,100713.00
2019-03-01T19:25:48.245Z,100713.12
2019-03-01T19:28:23.565Z,100713.27
2019-03-01T19:31:00.928Z,100722.83
2019-03-01T19:33:37.861Z,100725.88
2019-03-01T19:36:13.646Z,100726.31
2019-03-01T19:38:52.301Z,100734.11
2019-03-01T19:41:25.487Z,100741.41
2019-03-01T19:43:58.652Z,100740.18
2019-03-01T19:46:37.096Z,100739.33
2019-03-01T19:49:12.999Z,100739.89
2019-03-01T19:51:48.891Z,100743.41
2019-03-01T19:54:22.351Z,100750.88
2019-03-01T19:57:01.565Z,100745.80
2019-03-01T19:59:42.672Z,100749.71
2019-03-01T20:02:18.669Z,100749.81
2019-03-01T20:04:52.636Z,100751.20
2019-03-01T20:07:27.450Z,100758.13
2019-03-01T20:10:01.010Z,100753.08
2019-03-01T20:12:40.491Z,100764.69
2019-03-01T20:15:17.645Z,100771.12
2019-03-01T20:17:56.829Z,100766.91
2019-03-01T20:20:33.365Z,100778.91
2019-03-01T20:23:10.744Z,100777.27
2019-03-01T20:25:47.519Z,100780.32
2019-03-01T20:28:27.198Z,100781.52
2019-03-01T20:31:04.831Z,100787.52
2019-03-01T20:33:39.458Z,100780.20
2019-03-01T20:36:17.630Z,100780.63
2019-03-01T20:38:57.114Z,100778.56
2019-03-01T20:41:31.544Z,100784.56
2019-03-01T20:44:10.890Z,100793.62
2019-03-01T20:46:45.006Z,100792.84
2019-03-01T20:49:22.172Z,100788.51
2019-03-01T20:51:58.792Z,100791.47
2019-03-01T20:54:32.870Z,100793.16
2019-03-01T20:57:09.196Z,100795.71
2019-03-01T20:59:50.569Z,100794.42
2019-03-01T21:02:29.168Z,100796.23
2019-03-01T21:05:05.217Z,100793.70
2019-03-01T21:07:41.325Z,100797.73
2019-03-01T21:10:22.624Z,100802.89
2019-03-01T21:12:56.336Z,100803.84
2019-03-01T21:15:34.667Z,100812.08
2019-03-01T21:18:12.013Z,100810.41
2019-03-01T21:20:50.557Z,100804.41
2019-03-01T21:23:28.901Z,100803.03
2019-03-01T21:26:04.874Z,100806.40
2019-03-01T21:28:38.471Z,100807.69
2019-03-01T21:31:16.502Z,100810.22
2019-03-01T21:33:50.949Z,100810.17
2019-03-01T21:36:37.350Z,100817.41
2019-03-01T21:39:04.838Z,100818.35
2019-03-01T21:41:41.539Z,100819.21
2019-03-01T21:44:19.135Z,100823.03
2019-03-01T21:46:55.647Z,100841.27
2019-03-01T21:49:33.240Z,100842.02
2019-03-01T21:52:11.096Z,100852.83
2019-03-01T21:54:52.032Z,100853.16
2019-03-01T21:57:27.515Z,100859.12
2019-03-01T22:00:10.566Z,100863.80
2019-03-01T22:02:48.908Z,100867.98
2019-03-01T22:05:21.302Z,100872.16
2019-03-01T22:08:09.598Z,100874.23
2019-03-01T22:10:41.819Z,100862.94
2019-03-01T22:13:15.687Z,100874.58
2019-03-01T22:16:01.023Z,100884.46
2019-03-01T22:18:33.305Z,100881.28
2019-03-01T22:21:12.048Z,100889.33
2019-03-01T22:23:51.442Z,100898.76
2019-03-01T22:26:25.989Z,100889.56
2019-03-01T22:29:01.900Z,100890.36
2019-03-01T22:31:36.858Z,100898.43
2019-03-01T22:34:11.071Z,100904.38
2019-03-01T22:36:49.467Z,100908.97
2019-03-01T22:39:24.315Z,100911.44
2019-03-01T22:41:59.274Z,100902.64
2019-03-01T22:44:36.537Z,100907.66
2019-03-01T22:47:11.016Z,100915.30
2019-03-01T22:49:45.760Z,100917.85
2019-03-01T22:52:23.117Z,100916.92
2019-03-01T22:55:01.904Z,100913.94
2019-03-01T22:57:36.082Z,100921.70
2019-03-01T23:00:57.966Z,100924.66
2019-03-01T23:03:36.362Z,100922.90
2019-03-01T23:06:14.688Z,100926.75
2019-03-01T23:08:54.383Z,100918.58
2019-03-01T23:11:32.411Z,100921.97
2019-03-01T23:14:06.716Z,100925.78
2019-03-01T23:16:40.144Z,100928.77
2019-03-01T23:19:16.104Z,100932.66
2019-03-01T23:21:47.975Z,100930.89
2019-03-01T23:24:20.829Z,100931.30
2019-03-01T23:26:56.773Z,100925.64
2019-03-01T23:29:36.243Z,100929.06
2019-03-01T23:32:15.436Z,100929.03
2019-03-01T23:34:49.549Z,100927.30
2019-03-01T23:37:22.583Z,100930.33
2019-03-01T23:39:57.124Z,100934.64
2019-03-01T23:42:30.220Z,100938.03
2019-03-01T23:45:06.914Z,100943.20
2019-03-01T23:47:39.848Z,100938.03
2019-03-01T23:50:12.619Z,100943.00
2019-03-01T23:52:45.425Z,100940.80
2019-03-01T23:55:19.929Z,100938.61
2019-03-01T23:57:52.882Z,100944.69
